Time;durP1;ratioP1;P1;durP2;ratioP2;P2;SDS_P1;SDS_P2;PMS_P1;PMS_P2;Temp;Humidity;BMP_temperature;BMP_pressure;BME280_temperature;BME280_humidity;BME280_pressure;Samples;Min_cycle;Max_cycle;Signal;HPM_P1;HPM_P2
2022/01/01 00:02:22;;;;;;;50.22;27.75;;;8.40;99.90;;;;;;4979458;28;20035;-86
2022/01/01 00:04:48;;;;;;;53.75;27.23;;;8.40;99.90;;;;;;4979527;28;20039;-86
2022/01/01 00:07:17;;;;;;;51.05;27.40;;;8.40;99.90;;;;;;4979763;28;20117;-86
2022/01/01 00:09:43;;;;;;;48.05;27.35;;;8.40;99.90;;;;;;4979983;28;20030;-86
2022/01/01 00:12:11;;;;;;;50.08;27.27;;;8.50;99.90;;;;;;4979453;28;20030;-87
2022/01/01 00:14:38;;;;;;;55.85;29.45;;;8.50;99.90;;;;;;4995632;28;20038;-87
2022/01/01 00:17:06;;;;;;;46.13;27.92;;;8.50;99.90;;;;;;4995667;28;20500;-86
2022/01/01 00:27:06;;;;;;;58.58;26.33;;;8.50;99.90;;;;;;4997121;28;20110;-86
2022/01/01 00:29:32;;;;;;;41.92;24.23;;;8.50;99.90;;;;;;4995273;28;20518;-87
2022/01/01 00:31:58;;;;;;;43.13;24.10;;;8.60;99.90;;;;;;4979214;28;20034;-86
2022/01/01 00:34:24;;;;;;;44.50;23.63;;;8.60;99.90;;;;;;4979354;28;20386;-87
2022/01/01 00:36:50;;;;;;;38.22;24.00;;;8.60;99.90;;;;;;4995030;28;20064;-87
2022/01/01 00:39:15;;;;;;;42.83;23.70;;;8.60;99.90;;;;;;4979136;28;20031;-87
2022/01/01 00:42:00;;;;;;;44.28;25.25;;;8.60;99.90;;;;;;4979241;28;20038;-86
2022/01/01 00:44:26;;;;;;;39.78;22.73;;;8.60;99.90;;;;;;4978715;28;20084;-86
2022/01/01 00:46:51;;;;;;;38.95;23.15;;;8.60;99.90;;;;;;4995262;28;20038;-86
2022/01/01 00:49:17;;;;;;;35.20;21.42;;;8.60;99.90;;;;;;4979060;28;20482;-86
2022/01/01 00:51:43;;;;;;;36.72;20.27;;;8.60;99.90;;;;;;4962005;28;20122;-87
2022/01/01 00:54:08;;;;;;;34.88;20.52;;;8.70;99.90;;;;;;4978660;28;20088;-87
2022/01/01 00:56:34;;;;;;;33.10;19.92;;;8.70;99.90;;;;;;4978949;28;20029;-86
2022/01/01 00:59:00;;;;;;;38.60;19.67;;;8.70;99.90;;;;;;4978410;28;20093;-86
2022/01/01 01:01:25;;;;;;;33.53;18.95;;;8.70;99.90;;;;;;4962688;28;20069;-86
2022/01/01 01:03:51;;;;;;;34.42;19.50;;;8.70;99.90;;;;;;4994628;28;20038;-86
2022/01/01 01:06:17;;;;;;;34.53;19.05;;;8.70;99.90;;;;;;4978614;28;20039;-86
2022/01/01 01:08:43;;;;;;;38.67;20.35;;;8.70;99.90;;;;;;4962830;28;20057;-87
2022/01/01 01:11:08;;;;;;;40.30;19.65;;;8.70;99.90;;;;;;4978184;28;20023;-86
2022/01/01 01:13:40;;;;;;;31.65;19.95;;;8.70;99.90;;;;;;4978703;28;20032;-86
2022/01/01 01:16:06;;;;;;;36.92;21.17;;;8.70;99.90;;;;;;4978111;28;20037;-86
2022/01/01 01:19:15;;;;;;;35.95;20.83;;;8.70;99.90;;;;;;4978431;28;20041;-86
2022/01/01 01:21:41;;;;;;;38.03;21.77;;;8.70;99.90;;;;;;4995957;28;20382;-87
2022/01/01 01:24:32;;;;;;;41.78;22.83;;;8.70;99.90;;;;;;4978090;28;20030;-87
2022/01/01 01:27:34;;;;;;;40.67;23.52;;;8.60;99.90;;;;;;4978348;28;20054;-87
2022/01/01 01:30:00;;;;;;;;;;;8.60;99.90;;;;;;4978297;28;20048;-86
2022/01/01 01:32:32;;;;;;;55.97;25.98;;;8.60;99.90;;;;;;4961816;28;19910;-86
2022/01/01 01:34:57;;;;;;;51.47;26.52;;;8.60;99.90;;;;;;4995222;28;20447;-86
2022/01/01 01:37:23;;;;;;;52.60;27.58;;;8.60;99.90;;;;;;4978634;28;20041;-87
2022/01/01 01:39:49;;;;;;;57.83;29.23;;;8.60;99.90;;;;;;4994223;28;20072;-88
2022/01/01 01:42:44;;;;;;;52.85;28.92;;;8.50;99.90;;;;;;4977530;28;20034;-86
2022/01/01 01:45:15;;;;;;;56.10;29.48;;;8.50;99.90;;;;;;4995317;28;20066;-87
2022/01/01 01:47:42;;;;;;;51.47;27.48;;;8.40;99.90;;;;;;4978249;28;20034;-86
2022/01/01 01:50:10;;;;;;;59.38;30.00;;;8.50;99.90;;;;;;4977811;28;20482;-86
2022/01/01 01:52:37;;;;;;;60.22;29.27;;;8.50;99.90;;;;;;4977260;28;20022;-86
2022/01/01 01:55:11;;;;;;;60.35;30.23;;;8.40;99.90;;;;;;4977836;28;20105;-86
2022/01/01 01:57:39;;;;;;;60.40;30.33;;;8.40;99.90;;;;;;4977758;28;20085;-86
2022/01/01 02:00:15;;;;;;;55.80;28.40;;;8.40;99.90;;;;;;4994383;28;20043;-86
2022/01/01 02:02:41;;;;;;;58.70;28.80;;;8.40;99.90;;;;;;4978243;28;20049;-87
2022/01/01 02:05:07;;;;;;;58.72;29.17;;;8.40;99.90;;;;;;4977568;28;20034;-86
2022/01/01 02:07:34;;;;;;;58.50;30.48;;;8.30;99.90;;;;;;4994379;28;20053;-86
2022/01/01 02:10:00;;;;;;;60.83;28.77;;;8.30;99.90;;;;;;4978096;28;20052;-86
2022/01/01 02:12:26;;;;;;;57.75;28.98;;;8.30;99.90;;;;;;4977737;28;20077;-86
2022/01/01 02:17:36;;;;;;;73.47;33.20;;;8.30;99.90;;;;;;4977810;28;20022;-86
2022/01/01 02:20:15;;;;;;;68.80;32.78;;;8.30;99.90;;;;;;4995114;28;20081;-86
2022/01/01 02:22:47;;;;;;;57.05;29.48;;;8.30;99.90;;;;;;4961129;28;20026;-86
2022/01/01 02:25:19;;;;;;;62.15;29.95;;;8.30;99.90;;;;;;4961329;28;20089;-86
2022/01/01 02:27:45;;;;;;;;;;;8.30;99.90;;;;;;4961826;28;20030;-86
2022/01/01 02:30:14;;;;;;;68.20;33.42;;;8.30;99.90;;;;;;4993784;28;19956;-86
2022/01/01 02:32:40;;;;;;;52.05;28.50;;;8.30;99.90;;;;;;4993881;28;20181;-86
2022/01/01 02:35:08;;;;;;;148.23;66.95;;;8.30;99.90;;;;;;4977075;28;20069;-86
2022/01/01 02:37:39;;;;;;;130.82;56.53;;;8.30;99.90;;;;;;4977374;28;20382;-86
2022/01/01 02:40:06;;;;;;;60.00;28.20;;;8.30;99.90;;;;;;4977305;28;20033;-86
2022/01/01 02:42:32;;;;;;;51.58;26.25;;;8.30;99.90;;;;;;4977523;28;20041;-86
2022/01/01 02:44:59;;;;;;;61.33;29.30;;;8.30;99.90;;;;;;4977020;28;20407;-87
2022/01/01 02:47:25;;;;;;;59.33;29.17;;;8.40;99.90;;;;;;4993010;28;20034;-86
2022/01/01 02:49:51;;;;;;;56.97;28.60;;;8.30;99.90;;;;;;4992597;28;20042;-86
2022/01/01 02:52:17;;;;;;;60.20;28.75;;;8.40;99.90;;;;;;4976773;28;20037;-86
2022/01/01 02:54:43;;;;;;;64.18;28.48;;;8.40;99.90;;;;;;4994230;28;20386;-86
2022/01/01 02:57:09;;;;;;;52.35;25.70;;;8.30;99.90;;;;;;4977335;28;20030;-86
2022/01/01 03:00:03;;;;;;;61.78;29.95;;;8.30;99.90;;;;;;4977468;28;20097;-86
2022/01/01 03:02:29;;;;;;;49.25;25.17;;;8.20;99.90;;;;;;4960972;28;20565;-86
2022/01/01 03:04:54;;;;;;;53.85;26.83;;;8.30;99.90;;;;;;4994681;28;20038;-87
2022/01/01 03:07:20;;;;;;;52.72;26.60;;;8.20;99.90;;;;;;4977411;28;20533;-85
2022/01/01 03:09:46;;;;;;;52.92;25.92;;;8.20;99.90;;;;;;4960938;28;20030;-86
2022/01/01 03:12:14;;;;;;;57.25;26.42;;;8.20;99.90;;;;;;4960860;28;20089;-86
2022/01/01 03:14:40;;;;;;;57.63;26.98;;;8.10;99.90;;;;;;4977308;28;20030;-86
2022/01/01 03:17:07;;;;;;;54.88;26.33;;;8.10;99.90;;;;;;4976454;28;20025;-86
2022/01/01 03:19:34;;;;;;;55.65;26.83;;;8.00;99.90;;;;;;4976801;28;20034;-86
2022/01/01 03:22:00;;;;;;;55.85;25.50;;;8.00;99.90;;;;;;4976836;28;20038;-86
2022/01/01 03:24:27;;;;;;;58.15;24.55;;;7.90;99.90;;;;;;4976584;28;20034;-86
2022/01/01 03:26:53;;;;;;;63.80;26.20;;;7.80;99.90;;;;;;4976885;28;20434;-86
2022/01/01 03:29:19;;;;;;;56.17;22.73;;;7.70;99.90;;;;;;4976394;28;20034;-86
2022/01/01 03:31:44;;;;;;;63.15;26.10;;;7.60;99.90;;;;;;4976594;28;20038;-86
2022/01/01 03:34:10;;;;;;;56.38;24.83;;;7.50;99.90;;;;;;4977813;28;20037;-87
2022/01/01 03:36:36;;;;;;;53.60;24.48;;;7.40;99.90;;;;;;4980551;28;20034;-85
2022/01/01 03:39:03;;;;;;;54.97;22.30;;;7.30;99.90;;;;;;4980067;28;20629;-86
2022/01/01 03:41:29;;;;;;;57.97;25.80;;;7.20;99.90;;;;;;4996704;28;20184;-86
2022/01/01 03:43:54;;;;;;;63.85;29.30;;;7.10;99.90;;;;;;4980374;28;20286;-86
2022/01/01 03:46:20;;;;;;;76.50;35.47;;;7.00;99.90;;;;;;4980578;28;20393;-86
2022/01/01 03:48:46;;;;;;;61.00;30.23;;;6.80;99.90;;;;;;4979585;28;20482;-86
2022/01/01 03:51:12;;;;;;;67.57;31.05;;;6.70;99.90;;;;;;4979510;28;20666;-86
2022/01/01 03:53:38;;;;;;;60.65;28.45;;;6.60;99.90;;;;;;4979930;28;20393;-86
2022/01/01 03:56:03;;;;;;;62.13;27.95;;;6.50;99.90;;;;;;4980089;28;20029;-86
2022/01/01 03:59:03;;;;;;;61.05;25.48;;;6.50;99.90;;;;;;4980323;28;20129;-86
2022/01/01 04:01:29;;;;;;;61.60;26.63;;;6.50;99.90;;;;;;4979918;28;20041;-86
2022/01/01 04:03:55;;;;;;;58.22;23.98;;;6.60;99.90;;;;;;4979774;28;20466;-86
2022/01/01 04:06:20;;;;;;;53.63;24.13;;;6.80;99.90;;;;;;4979735;28;20054;-85
2022/01/01 04:08:46;;;;;;;58.67;24.60;;;6.70;99.90;;;;;;4979654;28;20033;-86
2022/01/01 04:11:13;;;;;;;63.40;24.27;;;6.60;99.90;;;;;;4979637;28;20134;-86
2022/01/01 04:13:39;;;;;;;60.15;24.27;;;6.50;99.90;;;;;;4996629;28;20031;-86
2022/01/01 04:16:06;;;;;;;55.25;22.05;;;6.50;99.90;;;;;;4979811;28;20039;-86
2022/01/01 04:18:38;;;;;;;55.90;22.75;;;6.60;99.90;;;;;;4963601;28;20117;-85
2022/01/01 04:21:11;;;;;;;59.33;23.08;;;6.70;99.90;;;;;;4979635;28;20495;-86
2022/01/01 04:23:38;;;;;;;67.55;24.08;;;6.70;99.90;;;;;;4979336;28;20034;-86
2022/01/01 04:26:06;;;;;;;55.10;22.17;;;6.80;99.90;;;;;;4979558;28;20058;-86
2022/01/01 04:28:33;;;;;;;49.72;21.13;;;6.70;99.90;;;;;;4979755;28;20070;-86
2022/01/01 04:30:59;;;;;;;51.80;22.33;;;6.80;99.90;;;;;;4979339;28;20034;-86
2022/01/01 04:33:24;;;;;;;256.70;29.13;;;6.70;99.90;;;;;;4978990;28;20041;-86
2022/01/01 04:35:51;;;;;;;475.05;36.67;;;6.60;99.90;;;;;;4979403;28;20030;-85
2022/01/01 04:40:55;;;;;;;684.05;49.50;;;6.80;99.90;;;;;;4979335;28;20081;-85
2022/01/01 04:43:21;;;;;;;401.05;36.80;;;6.90;99.90;;;;;;4979064;28;20078;-85
2022/01/01 04:45:46;;;;;;;595.30;43.80;;;7.00;99.90;;;;;;4978277;28;20451;-86
2022/01/01 04:48:12;;;;;;;484.92;38.33;;;7.10;99.90;;;;;;4979127;28;20375;-86
2022/01/01 04:50:38;;;;;;;681.90;52.47;;;7.20;99.90;;;;;;4962908;28;20188;-85
2022/01/01 04:53:30;;;;;;;845.05;63.92;;;7.20;99.90;;;;;;4978737;28;20030;-85
2022/01/01 04:55:56;;;;;;;446.80;41.97;;;7.30;99.90;;;;;;4979293;28;20031;-85
2022/01/01 04:58:22;;;;;;;436.30;39.70;;;7.40;99.90;;;;;;4978656;28;20529;-85
2022/01/01 05:00:47;;;;;;;453.23;44.80;;;7.50;99.90;;;;;;4978937;28;20113;-86
2022/01/01 05:03:13;;;;;;;675.88;50.22;;;7.60;99.90;;;;;;4977985;28;20030;-86
2022/01/01 05:05:39;;;;;;;401.33;38.97;;;7.60;99.90;;;;;;4962627;28;20034;-86
2022/01/01 05:08:05;;;;;;;50.35;22.15;;;7.60;99.90;;;;;;4978681;28;20481;-86
2022/01/01 05:10:31;;;;;;;490.65;47.70;;;7.60;99.90;;;;;;4978792;28;20033;-85
2022/01/01 05:12:56;;;;;;;903.05;68.32;;;7.70;99.90;;;;;;4978571;28;20053;-86
2022/01/01 05:15:37;;;;;;;742.80;61.53;;;7.60;99.90;;;;;;4978350;28;20081;-86
2022/01/01 05:18:03;;;;;;;442.35;41.90;;;7.60;99.90;;;;;;4978656;28;20023;-85
2022/01/01 05:20:29;;;;;;;472.33;40.78;;;7.60;99.90;;;;;;4978444;28;20137;-86
2022/01/01 05:22:55;;;;;;;720.08;59.80;;;7.60;99.90;;;;;;4978243;28;20070;-85
2022/01/01 05:25:39;;;;;;;1101.65;79.13;;;7.70;99.90;;;;;;4978250;28;20056;-85
2022/01/01 05:28:05;;;;;;;846.63;64.25;;;7.60;99.90;;;;;;4961834;28;20034;-86
2022/01/01 05:30:30;;;;;;;1073.07;84.30;;;7.70;99.90;;;;;;4978173;28;20041;-86
2022/01/01 05:32:58;;;;;;;923.85;77.45;;;7.80;99.90;;;;;;4978112;28;20081;-86
2022/01/01 05:35:24;;;;;;;976.83;73.70;;;7.80;99.90;;;;;;4978243;28;20390;-86
2022/01/01 05:37:50;;;;;;;132.15;35.35;;;7.90;99.90;;;;;;4977981;28;20117;-85
2022/01/01 05:40:16;;;;;;;231.07;37.50;;;7.80;99.90;;;;;;4977906;28;20777;-85
2022/01/01 05:42:48;;;;;;;446.65;40.63;;;7.90;99.90;;;;;;4994176;28;20070;-86
2022/01/01 05:45:13;;;;;;;573.08;46.20;;;7.90;99.90;;;;;;4977892;28;20513;-85
2022/01/01 05:47:39;;;;;;;824.53;66.10;;;7.90;99.90;;;;;;4977474;28;20026;-85
2022/01/01 05:50:05;;;;;;;179.30;31.10;;;7.90;99.90;;;;;;4961959;28;20121;-85
2022/01/01 05:52:31;;;;;;;980.13;97.68;;;7.90;99.90;;;;;;4977605;28;20049;-85
2022/01/01 05:54:57;;;;;;;1088.18;119.25;;;7.90;99.90;;;;;;4976657;28;20030;-86
2022/01/01 05:57:22;;;;;;;771.63;77.28;;;8.00;99.90;;;;;;4977294;28;20034;-85
2022/01/01 05:59:48;;;;;;;308.25;43.08;;;7.90;99.90;;;;;;4977843;28;20129;-86
2022/01/01 06:02:14;;;;;;;248.38;37.90;;;7.90;99.90;;;;;;4977846;28;20504;-85
2022/01/01 06:04:39;;;;;;;717.05;63.35;;;8.00;99.90;;;;;;4977284;28;20035;-85
2022/01/01 06:07:11;;;;;;;357.92;43.42;;;7.90;99.90;;;;;;4977259;28;20463;-86
2022/01/01 06:09:37;;;;;;;353.35;40.10;;;7.90;99.90;;;;;;4977776;28;20046;-86
2022/01/01 06:12:03;;;;;;;498.10;53.83;;;7.90;99.90;;;;;;4977466;28;20049;-86
2022/01/01 06:14:29;;;;;;;586.97;56.63;;;7.90;99.90;;;;;;4977540;28;20035;-85
2022/01/01 06:16:54;;;;;;;338.90;45.17;;;7.90;99.90;;;;;;4977932;28;20468;-86
2022/01/01 06:19:20;;;;;;;368.48;41.45;;;8.00;99.90;;;;;;4977594;28;20030;-86
2022/01/01 06:21:46;;;;;;;788.30;66.28;;;8.00;99.90;;;;;;4977454;28;20378;-85
2022/01/01 06:24:11;;;;;;;372.52;42.38;;;8.00;99.90;;;;;;4977987;28;20093;-85
2022/01/01 06:26:37;;;;;;;782.03;62.00;;;7.90;99.90;;;;;;4977665;28;20469;-85
2022/01/01 06:29:03;;;;;;;181.07;34.00;;;7.90;99.90;;;;;;4978150;28;20173;-86
2022/01/01 06:31:29;;;;;;;236.30;36.55;;;8.00;99.90;;;;;;4977806;28;20034;-85
2022/01/01 06:33:54;;;;;;;761.72;57.83;;;8.00;99.90;;;;;;4961506;28;20026;-85
2022/01/01 06:36:20;;;;;;;258.30;38.50;;;8.00;99.90;;;;;;4977640;28;20065;-85
2022/01/01 06:38:46;;;;;;;1019.75;73.97;;;8.00;99.90;;;;;;4977822;28;20030;-85
2022/01/01 06:41:12;;;;;;;944.45;76.68;;;8.00;99.90;;;;;;4962120;28;20030;-85
2022/01/01 06:43:40;;;;;;;467.98;55.22;;;7.90;99.90;;;;;;4977709;28;20034;-85
2022/01/01 06:46:06;;;;;;;683.10;59.15;;;8.00;99.90;;;;;;4961459;28;20038;-86
2022/01/01 06:48:44;;;;;;;163.70;36.40;;;8.00;99.90;;;;;;4977700;28;20029;-85
2022/01/01 06:51:10;;;;;;;551.88;56.85;;;8.00;99.90;;;;;;4977307;28;20134;-85
2022/01/01 06:54:21;;;;;;;252.13;45.92;;;8.00;99.90;;;;;;4977630;28;20042;-86
2022/01/01 06:56:47;;;;;;;186.43;41.00;;;8.00;99.90;;;;;;4961116;28;20045;-86
2022/01/01 06:59:13;;;;;;;503.83;60.35;;;8.10;99.90;;;;;;4977522;28;20479;-85
2022/01/01 07:01:39;;;;;;;541.78;61.60;;;8.00;99.90;;;;;;4977168;28;20124;-86
2022/01/01 07:04:04;;;;;;;243.63;47.58;;;8.00;99.90;;;;;;4977525;28;20063;-86
2022/01/01 07:06:31;;;;;;;214.38;44.13;;;8.10;99.90;;;;;;4976947;28;20084;-86
2022/01/01 07:08:57;;;;;;;579.83;70.03;;;8.10;99.90;;;;;;4977571;28;20490;-86
2022/01/01 07:11:23;;;;;;;274.48;46.05;;;8.10;99.90;;;;;;4997301;28;20500;-86
2022/01/01 07:13:48;;;;;;;332.80;51.42;;;8.10;99.90;;;;;;4980310;28;20169;-86
2022/01/01 07:16:14;;;;;;;232.43;48.20;;;8.10;99.90;;;;;;4980791;28;20505;-86
2022/01/01 07:18:40;;;;;;;480.30;60.35;;;8.10;99.90;;;;;;4980436;28;20038;-85
2022/01/01 07:21:06;;;;;;;628.03;64.28;;;8.10;99.90;;;;;;4980783;28;20445;-85
2022/01/01 07:23:32;;;;;;;548.10;61.30;;;8.10;99.90;;;;;;4964591;28;20052;-86
2022/01/01 07:25:59;;;;;;;660.05;70.00;;;8.10;99.90;;;;;;4981076;28;20129;-86
2022/01/01 07:28:25;;;;;;;860.75;74.55;;;8.00;99.90;;;;;;4981181;28;20030;-86
2022/01/01 07:30:51;;;;;;;503.45;56.42;;;8.00;99.90;;;;;;4981017;28;20093;-87
2022/01/01 07:33:17;;;;;;;292.70;44.05;;;8.00;99.90;;;;;;4981173;28;20030;-87
2022/01/01 07:35:43;;;;;;;152.20;42.60;;;8.00;99.90;;;;;;4965255;28;20042;-87
2022/01/01 07:38:08;;;;;;;154.13;44.03;;;8.00;99.90;;;;;;4983087;28;20073;-86
2022/01/01 07:40:34;;;;;;;169.02;48.70;;;8.00;99.90;;;;;;4981169;28;20031;-86
2022/01/01 07:43:14;;;;;;;374.58;58.50;;;8.00;99.90;;;;;;4981682;28;20026;-87
2022/01/01 07:45:41;;;;;;;176.25;50.22;;;8.00;99.90;;;;;;4996899;28;20061;-86
2022/01/01 07:48:07;;;;;;;165.27;49.78;;;8.00;99.90;;;;;;4996919;28;20034;-86
2022/01/01 07:50:33;;;;;;;204.38;55.55;;;8.00;99.90;;;;;;4980566;28;20038;-85
2022/01/01 07:52:59;;;;;;;124.18;45.78;;;8.10;99.90;;;;;;4980707;28;20034;-87
2022/01/01 07:55:25;;;;;;;151.50;47.67;;;8.10;99.90;;;;;;4980509;28;20545;-87
2022/01/01 07:57:51;;;;;;;147.85;47.78;;;8.10;99.90;;;;;;4982521;28;20034;-86
2022/01/01 08:00:17;;;;;;;130.90;46.60;;;8.10;99.90;;;;;;4982546;28;20088;-86
2022/01/01 08:02:44;;;;;;;132.15;47.55;;;8.10;99.90;;;;;;4998557;28;20045;-86
2022/01/01 08:05:11;;;;;;;102.15;42.00;;;8.20;99.90;;;;;;4980651;28;20088;-86
2022/01/01 08:07:37;;;;;;;124.63;44.58;;;8.20;99.90;;;;;;4980374;28;20034;-86
2022/01/01 08:10:05;;;;;;;131.82;47.22;;;8.10;99.90;;;;;;4998040;28;20496;-87
2022/01/01 08:12:37;;;;;;;107.30;38.42;;;8.20;99.90;;;;;;4980131;28;20026;-86
2022/01/01 08:15:05;;;;;;;104.05;38.75;;;8.20;99.90;;;;;;4995972;28;20058;-86
2022/01/01 08:17:31;;;;;;;95.18;36.35;;;8.20;99.90;;;;;;4963908;28;20056;-86
2022/01/01 08:19:57;;;;;;;110.75;35.63;;;8.20;99.90;;;;;;4980596;28;20116;-87
2022/01/01 08:22:23;;;;;;;98.38;35.22;;;8.10;99.90;;;;;;4980481;28;20082;-86
2022/01/01 08:24:49;;;;;;;91.93;35.08;;;8.10;99.90;;;;;;4980361;28;20490;-87
2022/01/01 08:27:15;;;;;;;96.10;35.13;;;8.20;99.90;;;;;;4980198;28;20034;-86
2022/01/01 08:29:41;;;;;;;100.65;36.83;;;8.20;99.90;;;;;;4979332;28;20030;-87
2022/01/01 08:32:07;;;;;;;105.80;38.97;;;8.20;99.90;;;;;;4981490;28;20038;-86
2022/01/01 08:34:33;;;;;;;92.07;35.05;;;8.20;99.90;;;;;;4967252;28;20030;-86
2022/01/01 08:36:59;;;;;;;91.55;33.42;;;8.10;99.90;;;;;;4979492;28;20080;-87
2022/01/01 08:39:25;;;;;;;79.47;31.58;;;8.10;99.90;;;;;;4980999;28;20112;-87
2022/01/01 08:41:50;;;;;;;73.05;29.80;;;8.10;99.90;;;;;;4978649;28;20482;-86
2022/01/01 08:44:30;;;;;;;77.88;31.30;;;8.00;99.90;;;;;;4979129;28;20030;-88
2022/01/01 08:46:55;;;;;;;82.45;31.23;;;8.10;99.90;;;;;;4979153;28;20092;-88
2022/01/01 08:49:21;;;;;;;81.10;31.05;;;8.10;99.90;;;;;;4979005;28;20042;-88
2022/01/01 08:51:47;;;;;;;80.85;32.10;;;8.10;99.90;;;;;;4978990;28;20052;-87
2022/01/01 08:54:14;;;;;;;72.25;31.90;;;8.10;99.90;;;;;;4978849;28;20459;-87
2022/01/01 08:56:41;;;;;;;73.78;30.45;;;8.20;99.90;;;;;;4978756;28;20034;-87
2022/01/01 08:59:07;;;;;;;75.03;32.17;;;8.20;99.90;;;;;;4979296;28;20037;-87
2022/01/01 09:01:33;;;;;;;66.65;29.73;;;8.30;99.90;;;;;;4978998;28;20030;-88
2022/01/01 09:03:59;;;;;;;61.33;28.55;;;8.30;99.90;;;;;;4978464;28;20133;-87
2022/01/01 09:06:25;;;;;;;60.90;28.27;;;8.30;99.90;;;;;;4995092;28;20034;-87
2022/01/01 09:08:51;;;;;;;61.28;28.35;;;8.40;99.90;;;;;;4978643;28;20042;-87
2022/01/01 09:11:17;;;;;;;58.35;27.48;;;8.40;99.90;;;;;;4973978;28;20106;-86
2022/01/01 09:13:44;;;;;;;56.25;25.83;;;8.40;99.90;;;;;;4962705;28;20058;-87
2022/01/01 09:16:17;;;;;;;61.22;27.65;;;8.60;99.90;;;;;;4978979;28;20056;-87
2022/01/01 09:18:56;;;;;;;51.30;24.17;;;8.70;99.90;;;;;;4978621;28;20045;-86
2022/01/01 09:21:22;;;;;;;49.88;23.35;;;8.60;99.90;;;;;;4962426;28;20581;-87
2022/01/01 09:24:22;;;;;;;44.85;23.77;;;8.80;99.90;;;;;;4978234;28;20027;-86
2022/01/01 09:26:48;;;;;;;46.58;22.23;;;8.90;99.90;;;;;;4978780;28;20037;-86
2022/01/01 09:29:14;;;;;;;41.50;19.67;;;9.00;99.90;;;;;;4995993;28;20398;-86
2022/01/01 09:31:41;;;;;;;33.40;17.95;;;9.10;99.90;;;;;;4978271;28;20038;-87
2022/01/01 09:34:23;;;;;;;31.17;17.73;;;9.10;99.90;;;;;;4978261;28;20088;-87
2022/01/01 09:36:50;;;;;;;29.27;16.98;;;9.20;99.90;;;;;;4978706;28;20026;-87
2022/01/01 09:39:17;;;;;;;27.65;14.75;;;9.10;99.90;;;;;;4978939;28;20129;-86
2022/01/01 09:41:43;;;;;;;29.15;14.13;;;9.10;99.90;;;;;;4962947;28;20034;-87
2022/01/01 09:44:13;;;;;;;24.02;13.73;;;9.20;99.90;;;;;;4979076;28;20503;-87
2022/01/01 09:47:04;;;;;;;21.60;11.52;;;9.30;99.90;;;;;;4978762;28;20129;-87
2022/01/01 09:49:30;;;;;;;22.00;12.77;;;9.40;99.90;;;;;;4978547;28;20192;-86
2022/01/01 09:51:58;;;;;;;22.38;11.85;;;9.60;99.90;;;;;;4995473;28;20380;-87
2022/01/01 09:54:24;;;;;;;14.27;9.07;;;10.40;99.90;;;;;;4978604;28;20480;-87
2022/01/01 09:56:50;;;;;;;19.67;9.63;;;11.10;99.90;;;;;;4962635;28;20061;-86
2022/01/01 09:59:15;;;;;;;17.45;10.30;;;11.50;99.90;;;;;;4963230;28;20393;-87
2022/01/01 10:01:41;;;;;;;16.02;9.77;;;11.90;99.90;;;;;;4978225;28;20049;-87
2022/01/01 10:04:14;;;;;;;11.27;7.25;;;12.50;99.90;;;;;;4961586;28;20041;-87
2022/01/01 10:06:41;;;;;;;15.45;8.35;;;12.80;99.90;;;;;;4993951;28;20038;-87
2022/01/01 10:09:08;;;;;;;16.20;7.50;;;12.60;99.90;;;;;;4994693;28;20106;-86
2022/01/01 10:11:35;;;;;;;11.48;8.20;;;12.70;99.90;;;;;;4961161;28;20038;-87
2022/01/01 10:14:06;;;;;;;14.88;9.88;;;12.60;99.90;;;;;;5009697;28;20380;-88
2022/01/01 10:16:33;;;;;;;13.65;9.70;;;12.70;99.90;;;;;;4961011;28;20030;-85
2022/01/01 10:19:01;;;;;;;12.80;8.30;;;13.10;99.90;;;;;;4977697;28;20474;-85
2022/01/01 10:21:28;;;;;;;8.38;6.20;;;13.00;99.90;;;;;;4961784;28;20125;-85
2022/01/01 10:23:56;;;;;;;12.18;7.00;;;12.60;99.90;;;;;;4961983;28;20034;-86
2022/01/01 10:29:26;;;;;;;15.10;7.32;;;12.40;99.90;;;;;;4993378;28;20092;-86
2022/01/01 10:31:58;;;;;;;12.25;6.05;;;12.20;99.90;;;;;;4977760;28;20110;-87
2022/01/01 10:34:33;;;;;;;13.35;7.05;;;12.30;99.90;;;;;;4961313;28;20509;-86
2022/01/01 10:36:59;;;;;;;10.45;6.40;;;12.20;99.90;;;;;;4977605;28;20093;-86
2022/01/01 10:39:27;;;;;;;8.90;5.47;;;12.10;99.90;;;;;;4961492;28;20038;-86
2022/01/01 10:41:55;;;;;;;12.93;5.90;;;12.00;99.90;;;;;;4961451;28;20034;-86
2022/01/01 10:44:39;;;;;;;10.88;6.25;;;12.00;99.90;;;;;;4976452;28;20096;-86
2022/01/01 10:47:18;;;;;;;9.50;6.00;;;11.90;99.90;;;;;;4993717;28;20049;-85
2022/01/01 10:52:22;;;;;;;11.88;6.18;;;11.60;99.90;;;;;;4995481;28;20073;-86
2022/01/01 10:54:58;;;;;;;13.63;6.03;;;11.50;99.90;;;;;;4977384;28;20104;-85
2022/01/01 10:57:53;;;;;;;10.50;5.82;;;11.50;99.90;;;;;;4977735;28;20421;-86
2022/01/01 11:00:23;;;;;;;11.88;5.22;;;11.60;99.90;;;;;;4994018;28;20497;-86
2022/01/01 11:02:55;;;;;;;8.65;5.60;;;11.70;99.90;;;;;;4961772;28;20038;-86
2022/01/01 11:05:27;;;;;;;11.40;5.85;;;11.70;99.90;;;;;;4963466;28;20061;-86
2022/01/01 11:07:53;;;;;;;10.75;5.03;;;11.60;99.90;;;;;;4961202;28;20085;-87
2022/01/01 11:10:21;;;;;;;8.20;5.18;;;11.60;99.90;;;;;;4994645;28;20027;-86
2022/01/01 11:12:48;;;;;;;9.52;5.13;;;11.60;99.90;;;;;;4993375;28;20030;-86
2022/01/01 11:15:15;;;;;;;7.07;5.00;;;11.50;99.90;;;;;;4963148;28;20053;-86
2022/01/01 11:17:43;;;;;;;12.00;6.22;;;11.60;99.90;;;;;;4961132;28;20163;-86
2022/01/01 11:20:09;;;;;;;9.38;6.43;;;11.80;99.90;;;;;;4960803;28;20085;-86
2022/01/01 11:22:35;;;;;;;11.50;6.18;;;11.90;99.90;;;;;;4961236;28;20379;-87
2022/01/01 11:25:02;;;;;;;9.35;6.07;;;11.90;99.90;;;;;;4961531;28;20031;-86
2022/01/01 11:27:28;;;;;;;10.50;5.30;;;11.90;99.90;;;;;;4961073;28;20054;-87
2022/01/01 11:29:55;;;;;;;8.23;5.20;;;11.90;99.90;;;;;;4961033;28;20034;-87
2022/01/01 11:32:27;;;;;;;9.98;5.57;;;12.00;99.90;;;;;;4992761;28;20395;-86
2022/01/01 11:34:54;;;;;;;9.65;4.93;;;12.10;99.90;;;;;;4976237;28;20113;-88
2022/01/01 11:37:22;;;;;;;9.95;4.50;;;12.20;99.90;;;;;;4960137;28;20498;-86
2022/01/01 11:40:27;;;;;;;8.10;4.63;;;12.20;99.90;;;;;;4960421;28;20481;-87
2022/01/01 11:42:53;;;;;;;9.27;4.45;;;12.20;99.90;;;;;;4960332;28;20053;-87
2022/01/01 11:45:41;;;;;;;6.93;4.32;;;12.10;99.90;;;;;;4960171;28;20038;-87
2022/01/01 11:48:27;;;;;;;9.98;4.32;;;12.20;99.90;;;;;;4976423;28;20026;-86
2022/01/01 11:50:52;;;;;;;7.53;4.53;;;12.30;99.90;;;;;;4976149;28;20062;-87
2022/01/01 11:53:29;;;;;;;7.72;4.15;;;12.50;99.90;;;;;;4960479;28;20367;-87
2022/01/01 11:56:12;;;;;;;8.82;4.50;;;12.70;99.90;;;;;;4962103;28;20041;-85
2022/01/01 11:59:38;;;;;;;11.13;4.68;;;12.90;99.90;;;;;;4996198;28;20453;-87
2022/01/01 12:02:24;;;;;;;9.32;5.65;;;12.90;99.90;;;;;;4970949;28;20045;-87
2022/01/01 12:04:55;;;;;;;103.60;44.05;;;12.80;99.90;;;;;;4979860;28;20034;-86
2022/01/01 12:07:21;;;;;;;14.50;6.55;;;12.70;99.90;;;;;;4979465;28;20792;-86
2022/01/01 12:10:02;;;;;;;9.73;5.40;;;12.60;99.90;;;;;;4979261;28;20034;-87
2022/01/01 12:12:48;;;;;;;8.60;4.70;;;12.50;99.90;;;;;;4979022;28;20069;-86
2022/01/01 12:15:44;;;;;;;10.15;5.15;;;12.40;99.90;;;;;;4979281;28;20394;-88
2022/01/01 12:18:17;;;;;;;14.70;7.35;;;12.40;99.90;;;;;;4963712;28;20045;-90
2022/01/01 12:20:56;;;;;;;21.67;10.00;;;12.40;99.90;;;;;;4979907;28;20044;-86
2022/01/01 12:23:48;;;;;;;37.75;19.63;;;12.20;99.90;;;;;;4963891;28;20038;-88
2022/01/01 12:26:14;;;;;;;;;;;12.20;99.90;;;;;;4997262;28;20035;-88
2022/01/01 12:28:43;;;;;;;9.48;6.30;;;12.30;99.90;;;;;;4995363;28;19960;-89
2022/01/01 12:31:21;;;;;;;9.23;6.05;;;12.40;99.90;;;;;;5012455;28;20060;-91
2022/01/01 12:33:59;;;;;;;7.63;5.05;;;12.50;99.90;;;;;;4966420;28;20126;-89
2022/01/01 12:36:32;;;;;;;13.02;7.03;;;12.60;99.90;;;;;;4963071;28;20787;-89
2022/01/01 12:39:02;;;;;;;10.70;4.30;;;12.60;99.90;;;;;;4963765;28;20088;-90
2022/01/01 12:41:37;;;;;;;8.30;4.50;;;12.60;99.90;;;;;;4996795;28;20053;-88
2022/01/01 12:44:07;;;;;;;8.23;5.45;;;12.50;99.90;;;;;;4979039;28;20034;-88
2022/01/01 12:46:36;;;;;;;9.73;5.50;;;12.50;99.90;;;;;;4963544;28;20511;-88
2022/01/01 12:49:04;;;;;;;11.85;5.53;;;12.50;99.90;;;;;;4964434;28;20540;-89
2022/01/01 12:51:36;;;;;;;11.13;5.82;;;12.40;99.90;;;;;;4966606;28;20049;-88
2022/01/01 12:54:03;;;;;;;9.60;5.90;;;12.30;99.90;;;;;;4962561;28;20038;-89
2022/01/01 12:56:31;;;;;;;9.07;5.03;;;12.30;99.90;;;;;;4978588;28;20038;-88
2022/01/01 12:59:05;;;;;;;9.82;5.32;;;12.30;99.90;;;;;;4962608;28;20096;-89
2022/01/01 13:01:32;;;;;;;7.90;4.88;;;12.30;99.90;;;;;;4978615;28;20437;-89
2022/01/01 13:04:10;;;;;;;11.07;4.97;;;12.30;99.90;;;;;;4962406;28;20116;-88
2022/01/01 13:06:41;;;;;;;9.05;5.20;;;12.30;99.90;;;;;;4978047;28;20061;-88